Terminal Aerodrome Forecast
Issued by NWS Charleston, WV

Current Version | Previous Version | Text Only | Print | Product List | Glossary Off
Versions: 1 2 3 4 5 6 7 8 9 10 11 12 13 14 15 16 17 18 19 20 21 22 23 24 25 26 27

289
FTUS41 KRLX 280201 AAA
TAFEKN
TAF AMD
KEKN 280201Z 2802/2824 18003KT P6SM BKN050
      TEMPO 2806/2809 3SM TSRA SCT025 OVC040CB
     FM280900 21003KT 4SM SHRA VCTS OVC025CB
     FM281200 24005KT 5SM SHRA OVC015
     FM281600 32009KT P6SM OVC025=

USA.gov is the U.S. government's official web portal to all federal, state and local government web resources and services.